createdAt,value
2022-08-10T00:00:43.850Z,17.97
2022-08-10T00:03:12.753Z,17.98
2022-08-10T00:05:43.709Z,17.95
2022-08-10T00:08:24.053Z,17.88
2022-08-10T00:15:01.481Z,17.65
2022-08-10T00:17:28.706Z,17.65
2022-08-10T00:20:04.178Z,17.64
2022-08-10T00:22:36.590Z,17.59
2022-08-10T00:25:20.036Z,17.56
2022-08-10T00:28:02.504Z,17.39
2022-08-10T00:30:31.188Z,17.51
2022-08-10T00:32:58.491Z,17.53
2022-08-10T00:35:26.010Z,17.49
2022-08-10T00:37:56.350Z,17.46
2022-08-10T00:40:36.936Z,17.44
2022-08-10T00:43:07.121Z,17.38
2022-08-10T00:45:36.072Z,17.29
2022-08-10T00:48:04.306Z,17.28
2022-08-10T00:50:32.030Z,17.25
2022-08-10T00:52:59.501Z,17.20
2022-08-10T00:55:27.284Z,17.17
2022-08-10T00:57:56.706Z,17.11
2022-08-10T01:00:27.063Z,17.09
2022-08-10T01:12:39.092Z,16.81
2022-08-10T01:19:27.923Z,16.72
2022-08-10T01:22:52.375Z,16.71
2022-08-10T01:26:10.540Z,16.64
2022-08-10T01:28:58.228Z,16.66
2022-08-10T01:31:33.860Z,16.66
2022-08-10T01:34:12.760Z,16.64
2022-08-10T01:36:49.938Z,16.57
2022-08-10T01:39:26.990Z,16.55
2022-08-10T01:42:02.777Z,16.58
2022-08-10T01:44:46.315Z,16.52
2022-08-10T01:47:22.075Z,16.51
2022-08-10T01:49:56.922Z,16.46
2022-08-10T01:53:09.837Z,16.38
2022-08-10T01:55:43.068Z,16.39
2022-08-10T01:59:06.911Z,16.45
2022-08-10T02:01:52.526Z,16.42
2022-08-10T02:04:24.327Z,16.35
2022-08-10T02:06:54.326Z,16.42
2022-08-10T02:09:27.832Z,16.41
2022-08-10T02:12:08.509Z,16.40
2022-08-10T02:14:45.116Z,16.33
2022-08-10T02:17:57.685Z,16.32
2022-08-10T02:20:15.388Z,16.28
2022-08-10T02:22:49.018Z,16.21
2022-08-10T02:25:41.610Z,16.18
2022-08-10T02:28:09.337Z,16.14
2022-08-10T02:34:48.799Z,16.05
2022-08-10T02:37:24.993Z,16.03
2022-08-10T02:39:54.182Z,16.01
2022-08-10T02:45:23.508Z,16.03
2022-08-10T02:45:31.740Z,15.98
2022-08-10T02:48:06.756Z,15.89
2022-08-10T02:50:41.815Z,15.88
2022-08-10T02:53:54.575Z,15.90
2022-08-10T02:56:35.576Z,15.82
2022-08-10T02:59:17.166Z,15.77
2022-08-10T03:01:50.374Z,15.69
2022-08-10T03:04:55.887Z,15.72
2022-08-10T03:07:43.104Z,15.68
2022-08-10T03:10:19.753Z,15.68
2022-08-10T03:12:53.453Z,15.64
2022-08-10T03:15:24.291Z,15.59
2022-08-10T03:17:58.314Z,15.57
2022-08-10T03:20:36.534Z,15.51
2022-08-10T03:23:21.604Z,15.47
2022-08-10T03:25:54.598Z,15.45
2022-08-10T03:28:30.258Z,15.40
2022-08-10T03:31:01.788Z,15.34
2022-08-10T03:33:37.574Z,15.29
2022-08-10T03:36:41.864Z,15.28
2022-08-10T03:38:54.302Z,15.21
2022-08-10T03:49:39.835Z,14.99
2022-08-10T03:52:08.079Z,14.99
2022-08-10T03:54:36.123Z,14.95
2022-08-10T03:57:04.097Z,14.94
2022-08-10T03:59:32.406Z,14.93
2022-08-10T04:02:45.056Z,14.89
2022-08-10T04:05:39.702Z,14.83
2022-08-10T04:08:08.160Z,14.82
2022-08-10T04:14:38.675Z,14.72
2022-08-10T04:20:55.173Z,14.66
2022-08-10T04:23:29.196Z,14.67
2022-08-10T04:25:57.373Z,14.68
2022-08-10T04:32:26.605Z,14.62
2022-08-10T04:34:58.117Z,14.65
2022-08-10T04:37:27.249Z,14.65
2022-08-10T04:40:42.111Z,14.60
2022-08-10T04:43:54.175Z,14.56
2022-08-10T04:47:16.865Z,14.53
2022-08-10T04:54:15.516Z,14.40
2022-08-10T04:56:43.271Z,14.41
2022-08-10T04:59:12.166Z,14.44
2022-08-10T05:02:30.668Z,14.47
2022-08-10T05:04:37.271Z,14.43
2022-08-10T05:07:16.833Z,14.48
2022-08-10T05:10:04.878Z,14.50
2022-08-10T05:12:39.270Z,14.42
2022-08-10T05:19:16.984Z,14.38
2022-08-10T05:21:52.994Z,14.38
2022-08-10T05:24:32.058Z,14.35
2022-08-10T05:27:08.347Z,14.37
2022-08-10T05:29:36.999Z,14.38
2022-08-10T05:33:04.990Z,14.41
2022-08-10T05:43:22.416Z,14.33
2022-08-10T05:46:17.054Z,14.36
2022-08-10T05:48:58.939Z,14.40
2022-08-10T05:55:36.962Z,14.54
2022-08-10T05:58:20.592Z,14.68
2022-08-10T06:00:52.761Z,14.76
2022-08-10T06:03:51.004Z,14.87
2022-08-10T06:06:24.819Z,14.97
2022-08-10T06:09:01.075Z,15.04
2022-08-10T06:12:27.804Z,15.16
2022-08-10T06:18:30.766Z,15.39
2022-08-10T06:20:59.260Z,15.51
2022-08-10T06:23:29.128Z,15.64
2022-08-10T06:26:12.027Z,15.75
2022-08-10T06:28:52.996Z,15.87
2022-08-10T06:35:25.742Z,16.08
2022-08-10T06:38:42.417Z,16.20
2022-08-10T06:45:13.280Z,16.39
2022-08-10T06:48:09.313Z,16.47
2022-08-10T06:52:18.665Z,16.57
2022-08-10T06:54:48.392Z,16.62
2022-08-10T07:05:50.889Z,16.92
2022-08-10T07:08:21.379Z,17.02
2022-08-10T07:10:52.351Z,17.07
2022-08-10T07:14:15.392Z,17.19
2022-08-10T07:16:13.387Z,17.29
2022-08-10T07:27:03.624Z,17.61
2022-08-10T07:33:33.093Z,17.84
2022-08-10T07:36:01.677Z,17.92
2022-08-10T07:38:33.638Z,18.03
2022-08-10T07:41:03.543Z,18.13
2022-08-10T07:43:38.572Z,18.19
2022-08-10T07:46:10.765Z,18.23
2022-08-10T07:48:45.896Z,18.31
2022-08-10T07:51:15.464Z,18.36
2022-08-10T07:53:54.033Z,18.42
2022-08-10T07:56:47.868Z,18.47
2022-08-10T08:03:08.267Z,18.61
2022-08-10T08:06:37.429Z,18.68
2022-08-10T08:09:06.009Z,18.81
2022-08-10T08:11:36.067Z,18.87
2022-08-10T08:14:07.551Z,18.95
2022-08-10T08:16:38.619Z,19.03
2022-08-10T08:19:27.866Z,19.09
2022-08-10T08:24:10.247Z,19.17
2022-08-10T08:24:55.136Z,19.27
2022-08-10T08:27:26.135Z,19.35
2022-08-10T08:29:54.338Z,19.43
2022-08-10T08:32:31.220Z,19.51
2022-08-10T08:35:03.545Z,19.57
2022-08-10T08:38:31.298Z,19.64
2022-08-10T08:40:37.692Z,19.70
2022-08-10T08:43:32.127Z,19.70
2022-08-10T08:46:58.873Z,19.65
2022-08-10T08:50:07.618Z,19.83
2022-08-10T08:52:51.164Z,19.87
2022-08-10T08:56:05.654Z,19.97
2022-08-10T08:59:01.562Z,20.12
2022-08-10T09:02:15.064Z,20.19
2022-08-10T09:05:27.030Z,20.29
2022-08-10T09:08:21.596Z,20.35
2022-08-10T09:15:46.981Z,20.56
2022-08-10T09:18:24.059Z,20.63
2022-08-10T09:21:19.860Z,20.74
2022-08-10T09:24:06.420Z,20.74
2022-08-10T09:40:56.579Z,20.87
2022-08-10T09:43:14.125Z,20.92
2022-08-10T09:46:02.799Z,21.13
2022-08-10T09:48:50.593Z,21.22
2022-08-10T09:51:45.326Z,21.31
2022-08-10T09:54:38.080Z,21.41
2022-08-10T09:57:58.716Z,21.52
2022-08-10T10:00:51.588Z,21.53
2022-08-10T10:15:44.068Z,21.86
2022-08-10T10:18:29.462Z,21.89
2022-08-10T10:21:56.235Z,21.98
2022-08-10T10:24:40.801Z,22.09
2022-08-10T10:27:43.740Z,22.18
2022-08-10T10:31:16.657Z,22.31
2022-08-10T10:34:12.254Z,22.35
2022-08-10T10:36:44.943Z,22.44
2022-08-10T10:39:23.793Z,22.60
2022-08-10T10:42:35.039Z,22.73
2022-08-10T10:45:28.911Z,22.93
2022-08-10T10:48:24.116Z,23.10
2022-08-10T10:51:25.384Z,23.32
2022-08-10T10:54:19.392Z,23.53
2022-08-10T10:57:58.699Z,23.70
2022-08-10T11:08:38.563Z,24.21
2022-08-10T11:12:00.185Z,24.41
2022-08-10T11:14:48.436Z,24.65
2022-08-10T11:17:26.017Z,24.85
2022-08-10T11:21:03.586Z,25.03
2022-08-10T11:24:47.343Z,25.18
2022-08-10T11:35:11.487Z,25.63
2022-08-10T11:38:30.079Z,25.89
2022-08-10T11:42:08.839Z,26.14
2022-08-10T11:44:33.588Z,26.43
2022-08-10T11:47:15.369Z,26.68
2022-08-10T11:50:09.938Z,26.89
2022-08-10T11:52:56.618Z,27.11
2022-08-10T11:55:33.562Z,27.24
2022-08-10T11:58:08.967Z,27.35
2022-08-10T12:00:39.173Z,27.44
2022-08-10T12:03:08.732Z,27.59
2022-08-10T12:05:51.761Z,27.78
2022-08-10T12:10:03.671Z,27.97
2022-08-10T12:11:25.356Z,28.19
2022-08-10T12:14:20.901Z,28.37
2022-08-10T12:17:15.653Z,28.47
2022-08-10T12:20:08.681Z,28.63
2022-08-10T12:33:10.529Z,28.63
2022-08-10T12:36:22.367Z,28.66
2022-08-10T12:39:26.871Z,28.81
2022-08-10T12:42:06.241Z,28.91
2022-08-10T12:45:00.649Z,28.90
2022-08-10T12:48:08.175Z,28.90
2022-08-10T12:50:58.821Z,28.92
2022-08-10T12:53:55.507Z,29.11
2022-08-10T12:56:47.792Z,29.21
2022-08-10T12:59:16.476Z,29.27
2022-08-10T13:02:09.805Z,29.39
2022-08-10T13:08:47.173Z,29.52
2022-08-10T13:12:37.150Z,29.62
2022-08-10T13:14:24.067Z,29.73
2022-08-10T13:21:20.617Z,29.85
2022-08-10T13:24:03.557Z,29.86
2022-08-10T13:27:25.047Z,29.89
2022-08-10T13:29:36.727Z,30.00
2022-08-10T13:32:09.586Z,30.11
2022-08-10T13:35:02.423Z,30.22
2022-08-10T13:37:34.571Z,30.34
2022-08-10T13:40:04.188Z,30.48
2022-08-10T13:50:44.133Z,30.91
2022-08-10T13:53:15.508Z,31.07
2022-08-10T13:55:56.139Z,31.17
2022-08-10T13:58:39.341Z,31.28
2022-08-10T14:01:14.720Z,31.41
2022-08-10T14:03:44.633Z,31.49
2022-08-10T14:06:15.639Z,31.58
2022-08-10T14:08:54.748Z,31.69
2022-08-10T14:23:22.742Z,31.75
2022-08-10T14:32:01.902Z,31.73
2022-08-10T14:36:14.730Z,31.76
2022-08-10T14:37:41.715Z,31.81
2022-08-10T14:40:16.961Z,31.95
2022-08-10T14:43:04.474Z,32.04
2022-08-10T14:45:39.463Z,32.11
2022-08-10T14:48:16.483Z,32.22
2022-08-10T14:55:19.593Z,32.60
2022-08-10T14:58:19.269Z,32.71
2022-08-10T15:00:43.229Z,32.79
2022-08-10T15:04:01.630Z,32.88
2022-08-10T15:11:05.893Z,32.84
2022-08-10T15:14:29.411Z,32.77
2022-08-10T15:16:59.968Z,32.82
2022-08-10T15:20:03.266Z,32.84
2022-08-10T15:26:22.707Z,32.71
2022-08-10T15:29:23.162Z,32.47
2022-08-10T15:40:24.725Z,32.40
2022-08-10T15:43:24.657Z,32.35
2022-08-10T15:50:13.953Z,32.03
2022-08-10T15:53:01.543Z,32.01
2022-08-10T15:56:05.020Z,31.97
2022-08-10T15:58:50.084Z,31.87
2022-08-10T16:02:12.527Z,31.76
2022-08-10T16:05:16.825Z,31.56
2022-08-10T16:07:57.787Z,31.49
2022-08-10T16:10:38.960Z,31.25
2022-08-10T16:13:50.932Z,30.92
2022-08-10T16:16:04.687Z,30.50
2022-08-10T16:18:38.396Z,30.21
2022-08-10T16:21:20.672Z,30.08
2022-08-10T16:27:47.843Z,29.47
2022-08-10T16:30:16.258Z,29.21
2022-08-10T16:37:59.005Z,28.50
2022-08-10T16:45:06.566Z,27.95
2022-08-10T16:47:45.618Z,27.87
2022-08-10T16:54:27.626Z,27.66
2022-08-10T17:01:12.023Z,27.41
2022-08-10T17:04:08.253Z,27.35
2022-08-10T17:06:42.482Z,27.27
2022-08-10T17:09:20.029Z,27.17
2022-08-10T17:11:51.570Z,27.05
2022-08-10T17:14:24.009Z,26.98
2022-08-10T17:17:00.192Z,26.87
2022-08-10T17:19:42.580Z,26.78
2022-08-10T17:22:20.439Z,26.65
2022-08-10T17:25:01.995Z,26.54
2022-08-10T17:28:04.843Z,26.51
2022-08-10T17:30:35.246Z,26.39
2022-08-10T17:34:54.362Z,26.24
2022-08-10T17:37:27.089Z,26.14
2022-08-10T17:40:18.948Z,26.04
2022-08-10T17:43:07.199Z,25.92
2022-08-10T17:45:46.777Z,25.89
2022-08-10T17:48:25.191Z,25.83
2022-08-10T17:55:40.475Z,25.59
2022-08-10T18:02:29.810Z,25.40
2022-08-10T18:05:00.294Z,25.36
2022-08-10T18:11:33.007Z,25.14
2022-08-10T18:14:07.223Z,25.05
2022-08-10T18:17:20.436Z,24.94
2022-08-10T18:19:56.765Z,24.82
2022-08-10T18:23:24.813Z,24.72
2022-08-10T18:26:00.986Z,24.61
2022-08-10T18:28:31.121Z,24.57
2022-08-10T18:31:00.927Z,24.44
2022-08-10T18:33:44.061Z,24.39
2022-08-10T18:41:11.123Z,24.10
2022-08-10T18:44:06.298Z,24.07
2022-08-10T18:56:09.347Z,23.71
2022-08-10T18:59:05.597Z,23.61
2022-08-10T19:02:01.756Z,23.57
2022-08-10T19:05:30.879Z,23.47
2022-08-10T19:08:30.662Z,23.42
2022-08-10T19:11:20.636Z,23.37
2022-08-10T19:18:04.085Z,23.18
2022-08-10T19:21:06.806Z,23.09
2022-08-10T19:24:07.638Z,23.06
2022-08-10T19:27:15.393Z,22.98
2022-08-10T19:30:12.889Z,22.95
2022-08-10T19:33:08.260Z,22.89
2022-08-10T19:40:01.626Z,22.71
2022-08-10T19:43:09.029Z,22.68
2022-08-10T19:50:01.363Z,22.47
2022-08-10T19:57:05.628Z,22.34
2022-08-10T20:00:15.132Z,22.33
2022-08-10T20:07:21.763Z,22.24
2022-08-10T20:10:23.435Z,22.18
2022-08-10T20:13:11.763Z,22.13
2022-08-10T20:16:06.116Z,22.14
2022-08-10T20:18:48.701Z,22.09
2022-08-10T20:21:36.376Z,22.05
2022-08-10T20:24:10.828Z,22.05
2022-08-10T20:26:51.910Z,22.04
2022-08-10T20:29:59.497Z,22.00
2022-08-10T20:32:53.685Z,21.98
2022-08-10T20:35:43.924Z,21.94
2022-08-10T20:38:38.093Z,21.89
2022-08-10T20:42:01.408Z,21.87
2022-08-10T20:45:01.878Z,21.79
2022-08-10T20:47:57.033Z,21.75
2022-08-10T20:51:11.621Z,21.76
2022-08-10T20:53:50.142Z,21.70
2022-08-10T20:57:53.624Z,21.72
2022-08-10T21:00:11.335Z,21.66
2022-08-10T21:03:43.991Z,21.66
2022-08-10T21:06:41.746Z,21.65
2022-08-10T21:09:56.519Z,21.62
2022-08-10T21:13:19.452Z,21.53
2022-08-10T21:16:02.778Z,21.48
2022-08-10T21:19:52.159Z,21.46
2022-08-10T21:22:30.320Z,21.43
2022-08-10T21:25:07.451Z,21.43
2022-08-10T21:28:08.740Z,21.41
2022-08-10T21:31:22.025Z,21.38
2022-08-10T21:34:31.820Z,21.32
2022-08-10T21:37:11.199Z,21.24
2022-08-10T21:40:34.669Z,21.21
2022-08-10T21:43:51.448Z,21.15
2022-08-10T21:46:39.129Z,21.05
2022-08-10T21:50:07.262Z,21.00
2022-08-10T21:56:59.040Z,20.85
2022-08-10T21:59:42.702Z,20.80
2022-08-10T22:02:16.479Z,20.77
2022-08-10T22:09:09.047Z,20.55
2022-08-10T22:11:49.476Z,20.50
2022-08-10T22:14:33.848Z,20.46
2022-08-10T22:17:05.551Z,20.39
2022-08-10T22:19:48.298Z,20.35
2022-08-10T22:22:40.908Z,20.30
2022-08-10T22:25:46.930Z,20.26
2022-08-10T22:28:20.202Z,20.15
2022-08-10T22:31:50.409Z,20.09
2022-08-10T22:34:52.830Z,19.99
2022-08-10T22:37:19.933Z,19.99
2022-08-10T22:40:16.438Z,19.97
2022-08-10T22:42:59.548Z,19.94
2022-08-10T22:45:37.340Z,19.94
2022-08-10T22:48:06.840Z,19.93
2022-08-10T22:50:35.336Z,19.89
2022-08-10T22:53:07.668Z,19.90
2022-08-10T22:55:39.989Z,19.87
2022-08-10T22:58:07.679Z,19.84
2022-08-10T23:00:36.481Z,19.89
2022-08-10T23:03:23.697Z,19.87
2022-08-10T23:06:14.672Z,19.83
2022-08-10T23:09:00.587Z,19.78
2022-08-10T23:11:40.360Z,19.74
2022-08-10T23:14:12.805Z,19.70
2022-08-10T23:16:49.307Z,19.67
2022-08-10T23:19:27.114Z,19.60
2022-08-10T23:22:05.854Z,19.59
2022-08-10T23:24:41.645Z,19.56
2022-08-10T23:27:37.442Z,19.55
2022-08-10T23:30:10.633Z,19.57
2022-08-10T23:32:59.585Z,19.50
2022-08-10T23:36:31.268Z,19.50
2022-08-10T23:38:22.259Z,19.49
2022-08-10T23:40:53.792Z,19.47
2022-08-10T23:43:46.581Z,19.43
2022-08-10T23:46:22.333Z,19.45
2022-08-10T23:48:56.374Z,19.45
2022-08-10T23:51:55.444Z,19.42
2022-08-10T23:54:26.389Z,19.39
2022-08-10T23:57:00.980Z,19.36
2022-08-10T23:59:32.228Z,19.38
